Time;durP1;ratioP1;P1;durP2;ratioP2;P2;SDS_P1;SDS_P2;PMS_P1;PMS_P2;Temp;Humidity;BMP_temperature;BMP_pressure;BME280_temperature;BME280_humidity;BME280_pressure;Samples;Min_cycle;Max_cycle;Signal;HPM_P1;HPM_P2
2022/08/07 00:01:59;;;;;;;11.70;10.63;;;;;;;23.12;66.02;99405.03;1749121;82;21007;-43
2022/08/07 00:04:26;;;;;;;10.63;9.53;;;;;;;23.13;66.25;99405.81;1749211;82;21051;-42
2022/08/07 00:06:53;;;;;;;11.33;10.23;;;;;;;23.13;66.40;99401.05;1749310;82;21046;-43
2022/08/07 00:09:20;;;;;;;11.80;10.25;;;;;;;23.13;66.55;99408.58;1749174;82;21245;-42
2022/08/07 00:11:47;;;;;;;21.75;12.03;;;;;;;23.12;66.69;99407.80;1749098;82;21542;-42
2022/08/07 00:14:14;;;;;;;18.27;11.75;;;;;;;23.13;66.83;99401.66;1749469;82;21014;-43
2022/08/07 00:16:42;;;;;;;12.80;10.30;;;;;;;23.13;66.33;99407.19;1749326;82;21063;-43
2022/08/07 00:19:09;;;;;;;12.73;10.50;;;;;;;23.11;66.33;99400.71;1749173;82;21046;-43
2022/08/07 00:21:36;;;;;;;11.35;10.08;;;;;;;23.11;66.70;99402.09;1749053;82;21214;-43
2022/08/07 00:24:04;;;;;;;11.28;10.18;;;;;;;23.12;67.01;99404.25;1748969;82;21533;-43
2022/08/07 00:26:32;;;;;;;12.45;10.95;;;;;;;23.12;67.18;99402.88;1749136;82;20943;-42
2022/08/07 00:28:59;;;;;;;11.50;10.35;;;;;;;23.13;67.26;99407.19;1748868;82;21359;-42
2022/08/07 00:31:26;;;;;;;11.63;10.35;;;;;;;23.12;67.16;99407.80;1748992;82;21062;-43
2022/08/07 00:33:54;;;;;;;16.42;10.60;;;;;;;23.12;67.03;99411.17;1749104;82;21214;-43
2022/08/07 00:36:21;;;;;;;12.68;10.35;;;;;;;23.12;67.00;99412.55;1748844;82;21540;-43
2022/08/07 00:38:48;;;;;;;11.28;10.15;;;;;;;23.10;66.97;99411.60;1749015;82;20932;-43
2022/08/07 00:41:16;;;;;;;11.93;10.25;;;;;;;23.10;66.88;99410.83;1748915;82;20955;-43
2022/08/07 00:43:43;;;;;;;12.45;10.13;;;;;;;23.09;66.76;99407.91;1750249;82;21090;-43
2022/08/07 00:46:10;;;;;;;12.93;10.65;;;;;;;23.09;66.75;99409.30;1748975;82;21223;-43
2022/08/07 00:48:37;;;;;;;11.73;10.38;;;;;;;23.07;66.71;99407.58;1748659;82;21559;-43
2022/08/07 00:51:05;;;;;;;11.73;10.48;;;;;;;23.05;66.72;99414.14;1748905;81;21035;-43
2022/08/07 00:53:33;;;;;;;13.28;10.60;;;;;;;23.03;66.65;99406.91;1749085;82;20979;-43
2022/08/07 00:56:01;;;;;;;11.38;10.28;;;;;;;23.03;66.49;99410.45;1749160;82;20999;-43
2022/08/07 00:58:29;;;;;;;11.50;10.43;;;;;;;23.01;66.45;99414.86;1749076;82;23198;-43
2022/08/07 01:00:55;;;;;;;12.80;10.65;;;;;;;23.00;66.40;99418.23;1749358;82;20990;-43
2022/08/07 01:03:23;;;;;;;13.98;10.68;;;;;;;23.00;66.51;99422.38;1749326;82;20966;-42
2022/08/07 01:05:50;;;;;;;11.83;10.55;;;;;;;23.01;66.66;99420.39;1749358;82;21054;-42
2022/08/07 01:08:17;;;;;;;11.65;10.08;;;;;;;23.00;66.59;99418.84;1749150;82;21085;-43
2022/08/07 01:10:44;;;;;;;13.05;11.03;;;;;;;22.99;66.61;99426.99;1725973;82;21220;-43
2022/08/07 01:13:12;;;;;;;11.15;10.10;;;;;;;22.97;66.77;99427.42;1749022;82;21010;-43
2022/08/07 01:15:39;;;;;;;13.03;10.05;;;;;;;22.93;66.82;99422.61;1748737;82;21026;-43
2022/08/07 01:18:06;;;;;;;11.40;10.20;;;;;;;22.92;66.60;99428.75;1748950;82;20986;-43
2022/08/07 01:20:37;;;;;;;11.38;10.25;;;;;;;22.92;66.49;99425.20;1748868;82;21043;-42
2022/08/07 01:23:04;;;;;;;11.15;9.78;;;;;;;22.91;66.45;99420.28;1748961;82;21228;-43
2022/08/07 01:25:32;;;;;;;12.03;10.32;;;;;;;22.90;66.37;99420.71;1748871;82;20975;-42
2022/08/07 01:27:59;;;;;;;12.25;10.30;;;;;;;22.89;66.51;99421.95;1749106;82;21082;-42
2022/08/07 01:30:27;;;;;;;10.93;9.85;;;;;;;22.88;66.68;99415.64;1748994;82;20980;-43
2022/08/07 01:32:55;;;;;;;12.33;9.83;;;;;;;22.90;66.75;99426.24;1749266;82;21509;-43
2022/08/07 01:35:22;;;;;;;12.45;10.10;;;;;;;22.90;66.81;99427.63;1725973;82;21142;-43
2022/08/07 01:37:49;;;;;;;13.72;10.90;;;;;;;22.88;66.86;99421.17;1716872;83;20989;-42
2022/08/07 01:40:19;;;;;;;12.80;10.10;;;;;;;22.87;66.99;99421.00;1708649;84;21099;-43
2022/08/07 01:42:48;;;;;;;12.00;9.43;;;;;;;22.88;67.07;99421.17;1684894;85;20923;-43
2022/08/07 01:45:15;;;;;;;10.48;9.40;;;;;;;22.88;67.11;99425.32;1715868;83;21102;-43
2022/08/07 01:47:42;;;;;;;10.60;9.60;;;;;;;22.86;67.07;99422.81;1715662;83;21300;-42
2022/08/07 01:50:11;;;;;;;11.38;10.23;;;;;;;22.85;67.14;99424.80;1691421;84;21497;-43
2022/08/07 01:52:39;;;;;;;10.85;9.70;;;;;;;22.83;67.30;99432.78;1721723;83;20983;-42
2022/08/07 01:55:08;;;;;;;11.48;10.03;;;;;;;22.81;67.35;99433.03;1728911;83;21018;-42
2022/08/07 01:57:37;;;;;;;11.30;10.08;;;;;;;22.79;67.28;99428.57;1699622;84;21114;-43
2022/08/07 02:00:09;;;;;;;9.98;8.98;;;;;;;22.77;67.02;99431.77;1718819;83;21645;-42
2022/08/07 02:02:57;;;;;;;10.35;9.38;;;;;;;22.76;66.84;99427.45;1717078;82;21579;-43
2022/08/07 02:05:36;;;;;;;10.65;9.65;;;;;;;22.75;66.83;99427.27;1715139;83;21065;-43
2022/08/07 02:08:07;;;;;;;11.43;10.28;;;;;;;22.74;66.79;99434.04;1688476;85;21037;-43
2022/08/07 02:10:36;;;;;;;12.80;11.40;;;;;;;22.72;66.83;99433.69;1691800;84;21060;-42
2022/08/07 02:13:05;;;;;;;12.43;11.22;;;;;;;22.68;66.93;99433.00;1690366;84;23199;-43
2022/08/07 02:15:34;;;;;;;13.75;12.35;;;;;;;22.64;66.94;99437.86;1689725;84;20945;-43
2022/08/07 02:18:01;;;;;;;18.10;11.75;;;;;;;22.61;66.99;99435.95;1690292;84;21029;-43
2022/08/07 02:20:30;;;;;;;14.47;12.03;;;;;;;22.59;67.03;99437.02;1691773;84;21040;-42
2022/08/07 02:23:00;;;;;;;14.43;12.88;;;;;;;22.57;67.02;99438.65;1690428;84;21084;-43
2022/08/07 02:25:29;;;;;;;13.08;11.73;;;;;;;22.53;67.06;99435.39;1691598;84;21259;-43
2022/08/07 02:27:58;;;;;;;13.65;12.07;;;;;;;22.51;67.20;99440.56;1690610;84;21614;-42
2022/08/07 02:30:25;;;;;;;14.07;12.45;;;;;;;22.49;67.35;99437.48;1691944;84;21016;-43
2022/08/07 02:32:55;;;;;;;13.95;12.55;;;;;;;22.45;67.43;99439.58;1690417;84;21300;-43
2022/08/07 02:35:22;;;;;;;13.38;12.03;;;;;;;22.44;67.47;99437.25;1692325;84;21060;-43
2022/08/07 02:37:51;;;;;;;14.23;12.65;;;;;;;22.42;67.61;99432.14;1687658;83;21272;-42
2022/08/07 02:40:19;;;;;;;13.98;12.45;;;;;;;22.41;67.63;99435.37;1685059;85;21021;-42
2022/08/07 02:42:46;;;;;;;13.88;12.47;;;;;;;22.40;67.76;99437.95;1685129;85;21626;-43
2022/08/07 02:45:14;;;;;;;13.15;11.83;;;;;;;22.39;67.82;99441.92;1684879;85;21523;-42
2022/08/07 02:47:41;;;;;;;14.33;12.93;;;;;;;22.40;67.79;99440.72;1700520;84;21068;-43
2022/08/07 02:50:10;;;;;;;14.53;12.20;;;;;;;22.39;67.78;99440.55;1709988;83;21330;-43
2022/08/07 02:52:42;;;;;;;13.05;11.78;;;;;;;22.38;67.83;99435.63;1675443;85;21084;-43
2022/08/07 02:55:15;;;;;;;13.10;11.90;;;;;;;22.37;67.78;99445.11;1680091;85;21578;-42
2022/08/07 02:57:41;;;;;;;13.28;11.97;;;;;;;22.36;67.87;99446.34;1679690;85;21026;-43
2022/08/07 03:00:11;;;;;;;13.85;11.57;;;;;;;22.35;67.94;99434.34;1679858;85;21536;-42
2022/08/07 03:02:42;;;;;;;13.50;11.97;;;;;;;22.35;68.01;99435.73;1679959;85;21630;-43
2022/08/07 03:05:09;;;;;;;13.08;11.68;;;;;;;22.36;68.02;99441.42;1679831;85;21033;-43
2022/08/07 03:07:38;;;;;;;13.50;12.13;;;;;;;22.36;67.95;99440.05;1680091;85;21037;-43
2022/08/07 03:10:08;;;;;;;14.10;11.60;;;;;;;22.36;67.86;99437.28;1680150;85;21002;-43
2022/08/07 03:12:35;;;;;;;13.55;12.18;;;;;;;22.37;67.87;99442.95;1680621;85;21061;-43
2022/08/07 03:15:06;;;;;;;13.88;12.10;;;;;;;22.35;67.89;99439.88;1680057;85;23163;-42
2022/08/07 03:17:33;;;;;;;15.28;12.68;;;;;;;22.36;67.91;99438.66;1680339;85;21037;-42
2022/08/07 03:20:01;;;;;;;14.13;12.68;;;;;;;22.36;67.98;99440.05;1680252;84;20977;-42
2022/08/07 03:22:29;;;;;;;14.00;12.70;;;;;;;22.37;68.06;99438.81;1680295;85;20969;-43
2022/08/07 03:24:58;;;;;;;16.02;13.20;;;;;;;22.39;68.15;99444.69;1680383;85;21570;-43
2022/08/07 03:27:26;;;;;;;;;;;;;;;22.41;68.19;99442.27;1682836;85;21226;-43
2022/08/07 03:29:54;;;;;;;13.70;12.28;;;;;;;22.40;68.15;99447.02;1680282;85;20151;-43
2022/08/07 03:32:26;;;;;;;14.45;13.05;;;;;;;22.31;68.48;99446.88;1713057;83;22527;-43
2022/08/07 03:34:53;;;;;;;;;;;;;;;22.31;68.51;99454.39;1715877;83;20973;-42
2022/08/07 03:37:20;;;;;;;14.87;13.48;;;;;;;22.31;68.59;99454.39;1713179;83;20181;-42
2022/08/07 03:39:47;;;;;;;15.65;13.98;;;;;;;22.23;68.81;99454.39;1743630;82;21617;-42
2022/08/07 03:42:16;;;;;;;18.35;14.33;;;;;;;22.23;68.79;99460.69;1743446;82;21016;-42
2022/08/07 03:44:43;;;;;;;18.50;14.83;;;;;;;22.23;68.98;99460.69;1722298;82;20996;-42
2022/08/07 03:47:11;;;;;;;16.82;15.13;;;;;;;22.23;69.05;99464.05;1722555;82;21613;-43
2022/08/07 03:49:39;;;;;;;16.45;14.83;;;;;;;22.23;69.21;99465.44;1743535;82;21021;-43
2022/08/07 03:52:06;;;;;;;15.83;14.23;;;;;;;22.25;69.29;99465.79;1743674;82;21211;-42
2022/08/07 03:54:34;;;;;;;17.10;14.33;;;;;;;22.26;69.40;99464.59;1743403;82;20946;-42
2022/08/07 03:57:01;;;;;;;15.60;14.00;;;;;;;22.29;69.61;99470.61;1743690;82;21043;-42
2022/08/07 03:59:29;;;;;;;14.68;13.18;;;;;;;22.34;69.72;99465.33;1722204;82;21030;-42
2022/08/07 04:01:57;;;;;;;14.93;13.38;;;;;;;22.39;69.80;99469.55;1743538;82;21033;-42
2022/08/07 04:04:25;;;;;;;15.32;13.32;;;;;;;22.45;69.92;99467.81;1743463;82;21141;-42
2022/08/07 04:06:54;;;;;;;15.00;12.82;;;;;;;22.51;69.90;99465.44;1743058;82;21031;-42
2022/08/07 04:09:22;;;;;;;13.95;12.55;;;;;;;22.59;69.90;99466.03;1743526;82;21678;-42
2022/08/07 04:11:50;;;;;;;15.25;13.78;;;;;;;22.70;70.10;99470.69;1743383;82;21037;-42
2022/08/07 04:14:17;;;;;;;15.95;14.45;;;;;;;22.78;70.04;99482.30;1722345;82;21055;-42
2022/08/07 04:16:45;;;;;;;16.05;14.45;;;;;;;22.79;70.01;99478.33;1743504;82;21135;-42
2022/08/07 04:19:12;;;;;;;15.55;13.93;;;;;;;22.83;70.44;99477.01;1722643;82;21037;-42
2022/08/07 04:21:39;;;;;;;17.02;14.80;;;;;;;22.90;70.39;99483.70;1743469;82;21031;-42
2022/08/07 04:24:09;;;;;;;16.23;14.63;;;;;;;22.96;70.37;99476.41;1743432;80;20949;-42
2022/08/07 04:26:40;;;;;;;17.75;14.65;;;;;;;23.05;70.26;99474.38;1743349;82;21037;-42
2022/08/07 04:29:08;;;;;;;18.65;14.53;;;;;;;23.14;70.36;99469.59;1743585;82;21155;-42
2022/08/07 04:31:38;;;;;;;16.52;14.78;;;;;;;23.21;70.09;99470.73;1743526;82;21540;-42
2022/08/07 04:34:06;;;;;;;16.73;14.98;;;;;;;23.28;70.00;99471.92;1743708;82;20989;-43
2022/08/07 04:36:33;;;;;;;16.50;14.90;;;;;;;23.32;69.61;99480.88;1743490;82;21522;-42
2022/08/07 04:39:01;;;;;;;15.32;13.93;;;;;;;23.34;69.46;99471.52;1743632;82;21045;-42
2022/08/07 04:41:29;;;;;;;16.23;14.73;;;;;;;23.38;69.59;99468.80;1743533;82;21196;-42
2022/08/07 04:43:56;;;;;;;16.55;14.80;;;;;;;23.46;69.89;99472.77;1743633;82;20930;-42
2022/08/07 04:46:46;;;;;;;17.27;14.90;;;;;;;23.49;69.77;99472.64;1743810;82;21012;-42
2022/08/07 04:49:31;;;;;;;16.50;14.83;;;;;;;23.52;69.57;99476.53;1743711;82;20934;-42
2022/08/07 04:52:15;;;;;;;15.80;13.80;;;;;;;23.54;69.69;99469.32;1749176;82;22121;-42
2022/08/07 04:54:59;;;;;;;15.25;13.50;;;;;;;23.58;69.56;99475.51;1747330;82;21394;-43
2022/08/07 04:57:49;;;;;;;15.35;13.83;;;;;;;23.62;69.06;99473.43;1751708;81;21031;-42
2022/08/07 05:00:19;;;;;;;15.40;13.88;;;;;;;23.66;68.63;99473.30;1751803;80;21872;-42
2022/08/07 05:02:57;;;;;;;14.35;12.88;;;;;;;23.71;68.58;99473.52;1751468;82;21574;-42
2022/08/07 05:05:33;;;;;;;14.95;12.95;;;;;;;23.76;68.43;99481.27;1751709;82;21287;-43
2022/08/07 05:08:09;;;;;;;19.25;14.05;;;;;;;23.82;68.12;99480.07;1751500;82;23156;-42
2022/08/07 05:10:57;;;;;;;15.40;13.85;;;;;;;23.91;68.34;99482.17;1751207;81;20941;-42
2022/08/07 05:13:39;;;;;;;15.13;13.62;;;;;;;24.00;68.15;99489.19;1743717;82;21009;-43
2022/08/07 05:16:08;;;;;;;14.80;13.30;;;;;;;24.05;68.07;99486.62;1751098;82;21016;-43
2022/08/07 05:18:39;;;;;;;15.38;11.85;;;;;;;24.11;67.79;99489.58;1747212;81;21028;-42
2022/08/07 05:21:08;;;;;;;16.90;12.82;;;;;;;24.18;67.80;99487.99;1750739;82;21175;-43
2022/08/07 05:23:40;;;;;;;14.23;12.82;;;;;;;24.29;67.54;99499.48;1751969;82;21456;-42
2022/08/07 05:26:12;;;;;;;13.90;12.63;;;;;;;24.36;67.47;99497.84;1751821;82;21569;-43
2022/08/07 05:28:39;;;;;;;12.82;11.53;;;;;;;24.43;67.40;99492.06;1751829;82;21569;-43
2022/08/07 05:31:06;;;;;;;13.00;11.60;;;;;;;24.51;66.86;99493.34;1751830;82;21017;-43
2022/08/07 05:33:35;;;;;;;13.90;12.30;;;;;;;24.61;66.64;99496.95;1751764;82;21590;-43
2022/08/07 05:36:06;;;;;;;14.05;12.05;;;;;;;24.71;66.76;99503.34;1724569;82;21040;-43
2022/08/07 05:38:33;;;;;;;12.63;11.38;;;;;;;24.78;66.57;99507.25;1724879;81;21032;-42
2022/08/07 05:41:01;;;;;;;11.93;10.80;;;;;;;24.85;66.11;99504.98;1751467;82;21585;-43
2022/08/07 05:43:28;;;;;;;12.47;10.68;;;;;;;24.93;65.71;99502.77;1751937;81;21064;-43
2022/08/07 05:45:56;;;;;;;13.20;10.98;;;;;;;25.01;65.56;99505.42;1751570;82;21150;-43
2022/08/07 05:48:24;;;;;;;11.35;10.35;;;;;;;25.12;65.54;99503.64;1751514;82;21515;-43
2022/08/07 05:50:51;;;;;;;11.43;10.40;;;;;;;25.20;65.68;99498.73;1751607;81;21535;-43
2022/08/07 05:53:19;;;;;;;11.35;10.13;;;;;;;25.30;65.53;99498.95;1751550;82;21067;-43
2022/08/07 05:55:47;;;;;;;11.48;10.45;;;;;;;25.39;64.78;99492.05;1751587;81;21064;-43
2022/08/07 05:58:14;;;;;;;11.60;9.85;;;;;;;25.49;64.26;99496.41;1751876;82;21252;-43
2022/08/07 06:00:42;;;;;;;10.05;9.05;;;;;;;25.60;63.60;99503.56;1751614;82;21513;-42
2022/08/07 06:03:09;;;;;;;10.53;9.15;;;;;;;25.66;62.52;99502.48;1752066;82;21566;-43
2022/08/07 06:05:36;;;;;;;10.63;9.48;;;;;;;25.72;62.42;99504.83;1751637;82;21060;-43
2022/08/07 06:08:05;;;;;;;11.03;9.43;;;;;;;25.82;62.10;99509.78;1690215;84;21112;-43
2022/08/07 06:10:32;;;;;;;11.48;9.88;;;;;;;25.90;61.94;99509.67;1691571;84;23120;-43
2022/08/07 06:13:00;;;;;;;10.68;9.58;;;;;;;25.97;61.75;99512.14;1690152;84;21005;-43
2022/08/07 06:15:28;;;;;;;11.43;9.65;;;;;;;26.05;61.43;99506.43;1691715;84;20984;-43
2022/08/07 06:17:55;;;;;;;10.38;9.38;;;;;;;26.11;61.10;99515.71;1690367;84;21095;-43
2022/08/07 06:20:23;;;;;;;10.05;9.15;;;;;;;26.19;60.87;99512.78;1692119;84;21103;-43
2022/08/07 06:22:51;;;;;;;9.85;8.95;;;;;;;26.28;60.96;99510.06;1690120;84;23198;-43
2022/08/07 06:25:20;;;;;;;11.57;9.58;;;;;;;26.37;60.00;99519.80;1690867;84;20983;-43
2022/08/07 06:27:48;;;;;;;10.45;9.45;;;;;;;26.47;59.60;99515.63;1690340;84;21101;-43
2022/08/07 06:30:15;;;;;;;10.45;9.08;;;;;;;26.55;59.98;99514.84;1691783;84;21056;-43
2022/08/07 06:32:42;;;;;;;11.45;9.78;;;;;;;26.62;58.59;99516.55;1690275;84;21009;-43
2022/08/07 06:35:09;;;;;;;10.23;8.85;;;;;;;26.64;58.89;99517.61;1692024;84;21938;-43
2022/08/07 06:37:38;;;;;;;10.38;9.38;;;;;;;26.70;59.15;99514.37;1690647;84;21527;-43
2022/08/07 06:40:07;;;;;;;10.90;9.80;;;;;;;26.76;58.78;99504.78;1691976;84;21083;-43
2022/08/07 06:42:38;;;;;;;10.35;9.15;;;;;;;26.80;58.57;99508.95;1690579;84;21040;-43
2022/08/07 06:45:14;;;;;;;9.33;8.43;;;;;;;26.87;58.38;99511.30;1692347;84;21095;-43
2022/08/07 06:47:41;;;;;;;9.93;8.93;;;;;;;26.93;58.62;99512.19;1690465;84;21899;-43
2022/08/07 06:50:10;;;;;;;10.53;9.53;;;;;;;27.02;58.98;99514.95;1691692;84;21492;-43
2022/08/07 06:52:40;;;;;;;10.68;9.58;;;;;;;27.10;58.28;99510.62;1648185;86;21587;-43
2022/08/07 06:55:15;;;;;;;11.38;9.55;;;;;;;27.14;57.91;99509.21;1719162;83;21091;-43
2022/08/07 06:57:43;;;;;;;11.00;9.10;;;;;;;27.21;58.03;99506.08;1718505;83;21096;-43
2022/08/07 07:00:12;;;;;;;10.18;9.18;;;;;;;27.27;57.62;99498.48;1718920;83;21807;-43
2022/08/07 07:02:40;;;;;;;10.38;9.28;;;;;;;27.40;57.35;99502.61;1718788;83;21026;-43
2022/08/07 07:05:08;;;;;;;14.60;8.90;;;;;;;27.53;57.06;99508.02;1718856;82;21026;-43
2022/08/07 07:07:36;;;;;;;9.35;8.45;;;;;;;27.61;56.83;99502.23;1718737;83;21060;-43
2022/08/07 07:10:05;;;;;;;8.53;7.70;;;;;;;27.72;56.74;99505.91;1718933;83;21016;-43
2022/08/07 07:12:52;;;;;;;9.25;8.05;;;;;;;27.84;56.40;99506.28;1719209;82;21227;-43
2022/08/07 07:15:29;;;;;;;9.58;7.65;;;;;;;27.95;55.86;99503.75;1719381;83;20964;-43
2022/08/07 07:18:10;;;;;;;9.18;8.28;;;;;;;28.06;55.79;99513.13;1719118;83;20965;-43
2022/08/07 07:20:50;;;;;;;9.05;7.62;;;;;;;28.20;55.13;99509.50;1719075;83;21028;-43
2022/08/07 07:23:18;;;;;;;7.60;6.90;;;;;;;28.36;54.65;99513.26;1719144;83;21099;-43
2022/08/07 07:25:45;;;;;;;7.83;6.78;;;;;;;28.58;54.69;99515.07;1719136;83;23133;-43
2022/08/07 07:28:25;;;;;;;7.45;6.75;;;;;;;28.75;53.31;99520.38;1719239;83;21012;-43
2022/08/07 07:31:01;;;;;;;7.80;7.05;;;;;;;28.88;52.46;99515.29;1719191;83;20984;-43
2022/08/07 07:33:28;;;;;;;7.08;6.47;;;;;;;28.95;52.50;99522.48;1715768;83;20941;-43
2022/08/07 07:35:55;;;;;;;6.42;5.83;;;;;;;29.02;51.90;99524.14;1691149;83;21032;-43
2022/08/07 07:38:26;;;;;;;7.53;6.58;;;;;;;29.09;51.81;99527.95;1691175;83;21221;-43
2022/08/07 07:40:58;;;;;;;7.08;6.37;;;;;;;29.13;51.18;99529.30;1719001;83;20937;-43
2022/08/07 07:43:24;;;;;;;7.15;6.45;;;;;;;29.11;50.67;99529.00;1719156;83;21302;-43
2022/08/07 07:45:52;;;;;;;7.40;6.70;;;;;;;29.03;50.32;99529.88;1719247;83;21027;-43
2022/08/07 07:48:20;;;;;;;8.23;7.42;;;;;;;28.94;50.41;99524.53;1719179;83;21064;-43
2022/08/07 07:50:48;;;;;;;6.85;6.12;;;;;;;28.89;51.02;99523.81;1719025;83;21232;-43
2022/08/07 07:53:17;;;;;;;10.60;7.00;;;;;;;28.91;51.39;99525.48;1739627;82;20969;-43
2022/08/07 07:55:44;;;;;;;;;;;;;;;29.01;51.03;99528.17;1745957;82;20989;-43
2022/08/07 07:58:12;;;;;;;8.05;6.67;;;;;;;29.13;50.92;99529.30;1743562;82;20146;-43
2022/08/07 08:00:40;;;;;;;6.97;6.35;;;;;;;29.14;49.93;99528.67;1743360;82;21040;-43
2022/08/07 08:03:12;;;;;;;7.22;6.62;;;;;;;29.24;50.49;99530.12;1743593;82;21127;-43
2022/08/07 08:05:40;;;;;;;7.87;6.90;;;;;;;29.36;50.43;99526.27;1743437;82;21551;-43
2022/08/07 08:08:09;;;;;;;8.63;7.15;;;;;;;29.51;50.47;99528.41;1743849;82;20973;-43
2022/08/07 08:10:36;;;;;;;7.50;6.80;;;;;;;29.65;49.81;99529.01;1743502;82;21342;-43
2022/08/07 08:13:03;;;;;;;7.85;7.08;;;;;;;29.79;49.66;99524.00;1743828;82;21579;-43
2022/08/07 08:15:35;;;;;;;7.35;6.67;;;;;;;29.94;49.29;99528.80;1743624;82;21135;-43
2022/08/07 08:18:02;;;;;;;7.30;6.60;;;;;;;30.03;48.46;99532.86;1743941;82;20930;-43
2022/08/07 08:20:30;;;;;;;8.05;6.97;;;;;;;30.00;48.89;99523.44;1743683;82;21536;-43
2022/08/07 08:28:29;;;;;;;8.05;7.25;;;;;;;29.81;48.65;99530.52;1743566;82;21130;-43
2022/08/07 08:30:58;;;;;;;8.13;7.25;;;;;;;29.68;48.67;99530.05;1743493;82;20930;-43
2022/08/07 08:33:29;;;;;;;9.40;7.67;;;;;;;29.58;48.63;99531.45;1744079;82;20988;-43
2022/08/07 08:35:57;;;;;;;8.10;7.40;;;;;;;29.60;50.11;99533.11;1743418;82;20937;-43
2022/08/07 08:38:34;;;;;;;8.45;7.62;;;;;;;29.71;49.56;99523.50;1743489;82;21055;-43
2022/08/07 08:41:36;;;;;;;9.55;8.38;;;;;;;29.84;49.52;99524.56;1743111;82;21535;-43
2022/08/07 08:44:15;;;;;;;8.60;7.67;;;;;;;29.97;49.72;99527.19;1743432;82;20965;-43
2022/08/07 08:46:59;;;;;;;7.85;7.10;;;;;;;30.10;48.61;99514.28;1741829;82;21453;-43
2022/08/07 08:49:34;;;;;;;8.95;7.25;;;;;;;30.25;48.37;99519.19;1754840;80;21576;-43
2022/08/07 08:52:36;;;;;;;10.13;6.80;;;;;;;30.36;47.80;99510.91;1749964;80;21073;-43
2022/08/07 08:55:27;;;;;;;7.12;6.42;;;;;;;30.50;47.25;99507.94;1779989;80;21243;-43
2022/08/07 08:58:26;;;;;;;6.60;6.03;;;;;;;30.60;46.69;99507.89;1780000;80;20985;-43
2022/08/07 09:01:13;;;;;;;7.22;6.53;;;;;;;30.69;47.01;99508.38;1780186;80;21001;-43
2022/08/07 09:03:57;;;;;;;9.45;6.92;;;;;;;30.83;46.29;99508.91;1780191;80;21524;-43
2022/08/07 09:06:53;;;;;;;9.08;6.83;;;;;;;30.96;46.36;99505.08;1780179;80;21088;-43
2022/08/07 09:10:02;;;;;;;8.68;7.78;;;;;;;31.12;45.61;99497.48;1780106;80;23175;-43
2022/08/07 09:13:05;;;;;;;8.58;7.40;;;;;;;31.26;46.43;99493.02;1779306;80;20929;-43
2022/08/07 09:15:59;;;;;;;7.78;7.03;;;;;;;31.37;45.81;99485.44;1757806;80;21072;-43
2022/08/07 09:18:59;;;;;;;7.78;7.00;;;;;;;31.45;45.81;99490.73;1779227;80;21590;-43
2022/08/07 09:21:34;;;;;;;9.60;8.78;;;;;;;31.50;45.12;99483.00;1780071;80;21598;-43
2022/08/07 09:24:21;;;;;;;10.03;9.13;;;;;;;31.54;46.25;99480.59;1780107;80;21076;-43
2022/08/07 09:26:57;;;;;;;10.75;9.48;;;;;;;31.54;45.67;99479.19;1779603;80;20976;-43
2022/08/07 09:29:46;;;;;;;10.55;9.45;;;;;;;31.38;46.31;99485.58;1779913;80;21052;-43
2022/08/07 09:32:57;;;;;;;13.50;10.10;;;;;;;31.20;46.73;99478.19;1780025;80;21010;-43
2022/08/07 09:35:58;;;;;;;10.90;9.83;;;;;;;30.98;46.43;99475.30;1779816;80;21032;-43
2022/08/07 09:38:45;;;;;;;10.90;9.90;;;;;;;30.78;47.17;99482.39;1779914;80;21243;-43
2022/08/07 09:41:39;;;;;;;10.25;9.30;;;;;;;30.66;47.24;99479.34;1779898;80;20961;-43
2022/08/07 09:44:38;;;;;;;11.03;8.80;;;;;;;30.69;47.09;99478.37;1779610;80;21000;-43
2022/08/07 09:47:20;;;;;;;10.25;9.35;;;;;;;30.82;47.26;99478.73;1780224;80;21620;-43
2022/08/07 09:50:28;;;;;;;10.82;9.83;;;;;;;30.88;46.87;99473.20;1777971;80;21041;-43
2022/08/07 09:52:59;;;;;;;10.38;9.28;;;;;;;30.92;46.69;99477.94;1779319;80;21223;-43
2022/08/07 09:56:00;;;;;;;11.35;8.60;;;;;;;31.04;46.66;99466.35;1779958;80;21076;-43
2022/08/07 09:59:01;;;;;;;9.13;8.30;;;;;;;31.25;46.35;99466.26;1780171;80;21065;-43
2022/08/07 10:01:55;;;;;;;9.10;8.30;;;;;;;31.40;45.68;99463.45;1779817;80;20977;-43
2022/08/07 10:05:14;;;;;;;11.57;8.50;;;;;;;31.44;45.16;99461.80;1780071;80;21036;-43
2022/08/07 10:08:11;;;;;;;9.83;8.98;;;;;;;31.37;44.77;99451.81;1778590;80;21247;-43
2022/08/07 10:11:12;;;;;;;9.40;8.38;;;;;;;31.21;44.85;99456.69;1779751;80;20981;-43
2022/08/07 10:14:20;;;;;;;9.65;8.75;;;;;;;31.01;45.39;99448.36;1779801;80;20957;-43
2022/08/07 10:17:15;;;;;;;10.43;9.48;;;;;;;30.89;45.97;99446.71;1779955;80;20965;-43
2022/08/07 10:20:17;;;;;;;10.00;9.10;;;;;;;30.88;46.13;99448.77;1779771;80;20993;-43
2022/08/07 10:23:09;;;;;;;9.63;8.43;;;;;;;30.94;47.01;99451.59;1779620;80;23122;-43
2022/08/07 10:25:41;;;;;;;9.78;8.78;;;;;;;31.14;46.22;99448.73;1777101;80;20969;-43
2022/08/07 10:28:26;;;;;;;9.53;8.63;;;;;;;31.54;46.14;99442.76;1780051;80;21005;-43
2022/08/07 10:31:19;;;;;;;9.43;8.33;;;;;;;31.92;45.18;99449.22;1779735;80;21611;-43
2022/08/07 10:34:17;;;;;;;8.65;7.90;;;;;;;32.20;43.59;99445.14;1779954;80;21606;-43
2022/08/07 10:37:29;;;;;;;8.18;7.37;;;;;;;32.32;43.17;99432.05;1779762;80;21930;-43
2022/08/07 10:40:17;;;;;;;8.55;7.35;;;;;;;32.31;42.64;99426.94;1780228;80;21041;-43
2022/08/07 10:43:13;;;;;;;7.45;5.58;;;;;;;32.20;42.66;99444.50;1780014;80;21012;-43
2022/08/07 10:45:48;;;;;;;5.25;4.75;;;;;;;32.09;41.58;99456.31;1779906;80;21058;-43
2022/08/07 10:48:43;;;;;;;5.42;4.92;;;;;;;31.84;41.65;99455.19;1779929;80;21287;-43
2022/08/07 10:51:32;;;;;;;5.78;5.00;;;;;;;31.58;41.92;99454.52;1779856;80;21237;-43
2022/08/07 10:54:21;;;;;;;5.75;4.40;;;;;;;31.23;43.08;99465.98;1660634;85;28317;-43
2022/08/07 10:57:13;;;;;;;;;;;;;;;30.85;42.55;99462.97;1651216;87;21098;-43
2022/08/07 10:59:54;;;;;;;6.28;4.20;;;;;;;30.45;43.26;99475.04;1715690;82;21680;-43
2022/08/07 11:02:38;;;;;;;9.80;4.53;;;;;;;30.01;44.39;99479.48;1748858;82;21500;-43
2022/08/07 11:08:43;;;;;;;8.23;4.45;;;;;;;29.31;44.10;99482.27;1779410;79;22512;-43
2022/08/07 11:11:30;;;;;;;5.15;4.35;;;;;;;29.03;44.66;99481.02;1739193;81;21640;-43
2022/08/07 11:14:08;;;;;;;5.50;4.80;;;;;;;28.76;44.00;99480.05;1739151;82;21195;-43
2022/08/07 11:16:57;;;;;;;5.40;4.72;;;;;;;28.37;44.69;99495.28;1739162;82;20998;-43
2022/08/07 11:19:41;;;;;;;6.03;4.53;;;;;;;28.07;45.60;99496.56;1739495;82;21017;-43
2022/08/07 11:22:13;;;;;;;6.28;4.65;;;;;;;27.87;46.42;99503.34;1739190;82;21509;-43
2022/08/07 11:25:09;;;;;;;5.28;4.78;;;;;;;27.69;47.10;99507.63;1738876;82;20970;-43
2022/08/07 11:28:10;;;;;;;13.80;5.08;;;;;;;27.57;47.02;99495.45;1739159;82;21983;-43
2022/08/07 11:30:57;;;;;;;5.08;4.60;;;;;;;27.28;48.10;99480.55;1738949;82;21010;-43
2022/08/07 11:33:58;;;;;;;5.75;5.12;;;;;;;27.02;49.80;99463.47;1738875;82;21002;-43
2022/08/07 11:37:03;;;;;;;7.30;4.70;;;;;;;26.88;50.59;99480.82;1739130;82;21073;-43
2022/08/07 11:39:52;;;;;;;4.95;4.55;;;;;;;26.77;50.91;99485.47;1739091;82;21101;-43
2022/08/07 11:42:51;;;;;;;5.78;4.75;;;;;;;26.67;51.73;99478.38;1739184;82;21136;-43
2022/08/07 11:45:55;;;;;;;;;;;;;;;26.59;51.96;99487.64;1741633;82;21529;-43
2022/08/07 11:49:07;;;;;;;7.30;4.80;;;;;;;26.49;51.74;99493.05;1709162;84;20091;-44
2022/08/07 11:52:04;;;;;;;8.73;4.60;;;;;;;26.30;53.76;99491.52;1731455;82;21495;-44
2022/08/07 11:55:10;;;;;;;11.03;6.00;;;;;;;26.24;54.82;99498.91;1731423;82;21051;-44
2022/08/07 11:58:00;;;;;;;7.45;5.55;;;;;;;26.16;56.65;99497.66;1731461;82;21126;-44
2022/08/07 12:00:55;;;;;;;11.18;5.72;;;;;;;25.98;56.86;99484.52;1731597;82;21058;-44
2022/08/07 12:04:06;;;;;;;11.35;6.00;;;;;;;25.74;57.29;99466.89;1731534;82;20947;-44
2022/08/07 12:07:12;;;;;;;9.53;5.30;;;;;;;25.44;58.85;99458.14;1730509;82;21675;-45
2022/08/07 12:09:50;;;;;;;7.85;5.45;;;;;;;25.27;60.25;99474.86;1714757;83;21043;-44
2022/08/07 12:12:27;;;;;;;8.20;5.42;;;;;;;25.19;60.90;99479.77;1721213;82;21247;-44